Time;durP1;ratioP1;P1;durP2;ratioP2;P2;SDS_P1;SDS_P2;PMS_P1;PMS_P2;Temp;Humidity;BMP_temperature;BMP_pressure;BME280_temperature;BME280_humidity;BME280_pressure;Samples;Min_cycle;Max_cycle;Signal;HPM_P1;HPM_P2
2022/05/05 00:00:53;;;;;;;12.63;9.15;;;;;;;11.78;71.62;99746.34;5114088;28;20535;-72
2022/05/05 00:03:18;;;;;;;12.18;9.40;;;;;;;11.73;72.32;99736.16;5113994;28;20065;-72
2022/05/05 00:05:44;;;;;;;15.82;11.45;;;;;;;11.68;72.32;99739.00;5114328;28;20156;-72
2022/05/05 00:08:09;;;;;;;17.48;13.30;;;;;;;11.63;72.02;99737.50;5113576;28;20068;-72
2022/05/05 00:16:05;;;;;;;20.00;15.13;;;;;;;11.50;72.75;99734.66;5113561;28;20047;-72
2022/05/05 00:18:31;;;;;;;18.92;14.07;;;;;;;11.46;73.75;99736.59;5113639;28;20027;-72
2022/05/05 00:20:56;;;;;;;15.02;12.00;;;;;;;11.40;74.45;99736.88;5113654;28;20380;-72
2022/05/05 00:23:22;;;;;;;19.10;13.02;;;;;;;11.42;74.40;99740.28;5113816;27;20066;-72
2022/05/05 00:25:47;;;;;;;15.63;12.57;;;;;;;11.33;74.24;99737.25;5113693;28;20537;-72
2022/05/05 00:28:12;;;;;;;15.57;12.55;;;;;;;11.34;74.46;99750.25;5113348;28;20028;-72
2022/05/05 00:30:38;;;;;;;19.77;13.27;;;;;;;11.24;75.43;99734.16;5113690;28;20458;-73
2022/05/05 00:33:03;;;;;;;13.70;11.82;;;;;;;11.26;76.44;99744.53;5113267;28;20480;-73
2022/05/05 00:35:28;;;;;;;15.25;11.25;;;;;;;11.18;77.28;99747.50;5113356;28;20558;-73
2022/05/05 00:37:54;;;;;;;14.32;11.27;;;;;;;11.10;77.83;99746.19;5113252;28;20084;-73
2022/05/05 00:40:19;;;;;;;12.90;10.75;;;;;;;11.08;78.10;99742.78;5113171;28;20094;-73
2022/05/05 00:42:45;;;;;;;18.98;12.00;;;;;;;11.01;78.20;99739.63;5113227;28;20027;-73
2022/05/05 00:45:11;;;;;;;16.65;11.00;;;;;;;10.92;79.09;99734.88;5112997;28;20088;-73
2022/05/05 00:47:37;;;;;;;13.68;11.25;;;;;;;10.89;79.51;99740.22;5112894;28;20047;-73
2022/05/05 00:50:02;;;;;;;16.17;11.00;;;;;;;10.85;79.52;99749.09;5113096;28;20020;-73
2022/05/05 00:52:28;;;;;;;15.60;11.25;;;;;;;10.81;79.27;99743.16;5113265;28;20032;-73
2022/05/05 00:54:57;;;;;;;16.88;11.48;;;;;;;10.77;80.08;99752.03;5113513;28;20487;-74
2022/05/05 00:57:23;;;;;;;14.55;11.15;;;;;;;10.72;80.02;99743.59;5113079;28;20032;-73
2022/05/05 00:59:50;;;;;;;16.98;11.48;;;;;;;10.63;81.37;99736.19;5113005;28;20050;-74
2022/05/05 01:02:16;;;;;;;14.13;10.50;;;;;;;10.68;81.86;99742.03;5112649;28;20031;-73
2022/05/05 01:04:42;;;;;;;14.52;11.05;;;;;;;10.55;82.19;99736.53;5113062;28;20102;-73
2022/05/05 01:07:08;;;;;;;14.48;11.90;;;;;;;10.50;82.86;99730.69;5112808;28;20399;-73
2022/05/05 01:09:35;;;;;;;15.85;11.63;;;;;;;10.45;83.64;99727.47;5112943;28;20027;-73
2022/05/05 01:12:00;;;;;;;17.30;11.45;;;;;;;10.45;83.80;99736.13;5111378;28;20397;-73
2022/05/05 01:14:26;;;;;;;13.77;11.23;;;;;;;10.34;84.26;99724.50;5112767;28;20027;-73
2022/05/05 01:16:51;;;;;;;15.45;12.07;;;;;;;10.27;84.83;99717.84;5112913;28;20376;-74
2022/05/05 01:19:17;;;;;;;14.75;11.70;;;;;;;10.34;84.73;99733.13;5112557;28;20030;-73
2022/05/05 01:21:51;;;;;;;15.27;11.93;;;;;;;10.22;84.56;99726.69;5112731;28;20031;-73
2022/05/05 01:24:16;;;;;;;13.82;11.68;;;;;;;10.29;84.49;99744.69;5111917;28;20024;-73
2022/05/05 01:29:25;;;;;;;17.25;11.85;;;;;;;10.14;84.88;99731.38;5112346;28;20076;-74
2022/05/05 01:31:52;;;;;;;13.88;11.35;;;;;;;10.22;85.34;99757.06;5112654;28;20110;-73
2022/05/05 01:34:18;;;;;;;15.63;12.15;;;;;;;10.17;85.93;99754.66;5112308;28;20026;-73
2022/05/05 01:36:43;;;;;;;15.63;12.15;;;;;;;10.13;86.57;99760.06;5112592;28;20110;-74
2022/05/05 01:39:09;;;;;;;15.80;12.82;;;;;;;10.01;87.41;99745.81;5112073;28;20029;-72
2022/05/05 01:41:36;;;;;;;16.73;13.23;;;;;;;9.98;87.88;99759.81;5112326;28;20035;-72
2022/05/05 01:44:01;;;;;;;16.40;12.48;;;;;;;9.97;88.27;99758.13;5112078;28;20020;-72
2022/05/05 01:46:26;;;;;;;15.50;12.82;;;;;;;9.85;88.61;99744.78;5112781;28;20027;-72
2022/05/05 01:48:52;;;;;;;16.52;12.98;;;;;;;9.97;89.30;99759.88;5111851;28;20472;-73
2022/05/05 01:51:17;;;;;;;16.63;13.07;;;;;;;9.93;89.52;99753.94;5111915;28;20020;-74
2022/05/05 01:53:43;;;;;;;17.10;12.43;;;;;;;9.69;89.64;99715.97;5112247;28;20043;-74
2022/05/05 01:56:12;;;;;;;13.93;12.40;;;;;;;9.93;88.85;99766.97;5112037;28;20028;-74
2022/05/05 01:58:38;;;;;;;14.50;12.20;;;;;;;9.75;89.24;99739.97;5111974;28;20369;-72
2022/05/05 02:01:06;;;;;;;15.73;12.98;;;;;;;9.79;89.97;99748.50;5112039;28;20039;-72
2022/05/05 02:03:32;;;;;;;16.15;12.77;;;;;;;9.73;89.88;99740.94;5112189;28;20020;-72
2022/05/05 02:05:57;;;;;;;17.02;13.15;;;;;;;9.77;89.95;99755.50;5112172;28;20028;-71
2022/05/05 02:08:22;;;;;;;15.07;13.48;;;;;;;9.79;90.13;99766.69;5111718;28;20024;-72
2022/05/05 02:10:48;;;;;;;16.25;13.30;;;;;;;9.71;90.28;99766.16;5112007;28;20059;-72
2022/05/05 02:13:13;;;;;;;15.60;12.57;;;;;;;9.65;90.28;99761.19;5112146;28;20094;-72
2022/05/05 02:15:39;;;;;;;17.92;12.20;;;;;;;9.64;90.04;99764.72;5111920;28;20073;-71
2022/05/05 02:18:11;;;;;;;18.05;14.18;;;;;;;9.65;90.61;99772.47;5111894;28;20028;-74
2022/05/05 02:20:38;;;;;;;17.08;13.80;;;;;;;9.55;91.74;99762.50;5112036;28;20488;-74
2022/05/05 02:23:04;;;;;;;16.55;13.63;;;;;;;9.56;91.79;99767.63;5111728;28;20019;-71
2022/05/05 02:25:30;;;;;;;20.98;17.13;;;;;;;9.51;92.64;99764.38;5111843;28;20383;-71
2022/05/05 02:27:56;;;;;;;22.48;16.58;;;;;;;9.47;92.86;99770.59;5111895;28;20035;-72
2022/05/05 02:30:23;;;;;;;18.58;15.88;;;;;;;9.42;93.16;99760.38;5111771;28;20049;-73
2022/05/05 02:32:49;;;;;;;18.63;15.43;;;;;;;9.41;93.55;99755.25;5111893;28;20532;-74
2022/05/05 02:35:14;;;;;;;20.10;13.98;;;;;;;9.40;93.89;99757.03;5111569;28;20107;-74
2022/05/05 02:40:25;;;;;;;17.08;14.48;;;;;;;9.33;94.80;99752.13;5115416;28;20092;-73
2022/05/05 02:42:51;;;;;;;18.05;14.27;;;;;;;9.24;95.29;99743.78;5115754;28;20016;-74
2022/05/05 02:45:17;;;;;;;16.88;13.40;;;;;;;9.23;95.64;99744.69;5115487;28;20107;-73
2022/05/05 02:47:42;;;;;;;19.10;14.20;;;;;;;9.21;95.56;99743.06;5115331;28;20050;-73
2022/05/05 02:50:08;;;;;;;18.23;14.80;;;;;;;9.25;96.15;99755.88;5115275;28;20055;-73
2022/05/05 02:52:33;;;;;;;18.95;15.43;;;;;;;9.21;96.65;99753.44;5115318;28;20528;-73
2022/05/05 02:54:59;;;;;;;21.55;15.38;;;;;;;9.19;97.27;99761.31;5115378;28;20083;-73
2022/05/05 02:57:25;;;;;;;19.77;14.75;;;;;;;9.16;97.54;99747.59;5115431;28;20055;-73
2022/05/05 02:59:53;;;;;;;17.60;14.00;;;;;;;9.12;97.25;99744.25;5115251;28;20169;-73
2022/05/05 03:02:19;;;;;;;18.63;14.77;;;;;;;9.19;96.92;99753.53;5115160;28;20032;-73
2022/05/05 03:04:45;;;;;;;18.63;14.05;;;;;;;9.10;96.80;99740.03;5115346;27;20476;-73
2022/05/05 03:07:10;;;;;;;20.50;13.93;;;;;;;9.14;97.05;99752.84;5115011;28;20027;-73
2022/05/05 03:09:35;;;;;;;16.98;14.35;;;;;;;9.06;97.33;99741.91;5115285;28;20031;-73
2022/05/05 03:12:01;;;;;;;17.98;14.70;;;;;;;9.09;96.91;99741.78;5115123;28;20016;-73
2022/05/05 03:14:27;;;;;;;17.02;14.73;;;;;;;9.13;97.35;99747.69;5114982;28;20077;-73
2022/05/05 03:16:53;;;;;;;18.58;15.45;;;;;;;9.05;96.84;99747.16;5115111;28;20020;-73
2022/05/05 03:19:18;;;;;;;17.58;15.50;;;;;;;9.01;97.50;99736.03;5114811;28;20027;-73
2022/05/05 03:21:44;;;;;;;21.83;15.85;;;;;;;9.02;98.30;99742.06;5114897;28;20028;-73
2022/05/05 03:24:10;;;;;;;21.60;16.10;;;;;;;8.97;98.64;99743.13;5114888;28;20031;-73
2022/05/05 03:26:35;;;;;;;23.92;16.58;;;;;;;8.96;99.17;99746.59;5115018;28;20032;-73
2022/05/05 03:29:01;;;;;;;19.80;15.85;;;;;;;8.95;99.59;99747.50;5114677;28;20020;-73
2022/05/05 03:31:26;;;;;;;20.00;15.30;;;;;;;8.97;99.68;99755.22;5114560;28;20023;-73
2022/05/05 03:33:53;;;;;;;22.25;17.08;;;;;;;8.99;99.14;99746.50;5114748;28;20092;-73
2022/05/05 03:36:19;;;;;;;24.60;16.52;;;;;;;8.98;99.65;99733.56;5114507;28;20095;-73
2022/05/05 03:38:44;;;;;;;21.48;16.55;;;;;;;9.17;99.57;99764.88;5114520;28;20031;-73
2022/05/05 03:41:09;;;;;;;20.90;15.52;;;;;;;9.21;99.22;99756.03;5114529;28;20504;-73
2022/05/05 03:43:35;;;;;;;19.13;15.52;;;;;;;9.25;98.18;99760.22;5114638;27;20027;-73
2022/05/05 03:46:00;;;;;;;23.60;17.05;;;;;;;9.30;98.52;99762.63;5114503;28;20023;-73
2022/05/05 03:48:26;;;;;;;24.85;16.75;;;;;;;9.33;99.18;99763.38;5113469;28;20540;-73
2022/05/05 03:50:51;;;;;;;20.85;16.85;;;;;;;9.38;99.57;99769.22;5114290;28;20019;-73
2022/05/05 03:53:18;;;;;;;23.92;17.25;;;;;;;9.45;99.30;99772.44;5114037;28;20460;-73
2022/05/05 03:55:43;;;;;;;22.63;17.85;;;;;;;9.55;99.32;99768.53;5114356;28;20020;-73
2022/05/05 03:58:10;;;;;;;18.83;15.85;;;;;;;9.73;98.68;99775.63;5114065;28;20081;-73
2022/05/05 04:00:35;;;;;;;26.48;18.77;;;;;;;9.94;97.86;99760.00;5114080;28;20027;-73
2022/05/05 04:05:45;;;;;;;25.70;16.90;;;;;;;10.62;95.32;99753.59;5114180;28;20507;-73
2022/05/05 04:08:10;;;;;;;21.30;16.25;;;;;;;11.13;93.31;99772.94;5113578;28;20063;-73
2022/05/05 04:10:35;;;;;;;26.63;17.65;;;;;;;11.55;90.47;99769.22;5113897;28;20047;-73
2022/05/05 04:13:01;;;;;;;28.65;16.98;;;;;;;12.19;87.27;99779.06;5113777;28;20080;-73
2022/05/05 04:15:26;;;;;;;27.20;15.80;;;;;;;12.68;83.54;99770.44;5113519;28;20031;-73
2022/05/05 04:17:52;;;;;;;28.85;17.00;;;;;;;12.99;81.34;99764.41;5113738;28;20074;-73
2022/05/05 04:20:18;;;;;;;19.50;16.42;;;;;;;13.21;80.33;99785.00;5113382;28;20027;-73
2022/05/05 04:22:44;;;;;;;17.65;15.50;;;;;;;13.37;78.99;99771.94;5113747;28;20038;-73
2022/05/05 04:25:12;;;;;;;21.67;15.07;;;;;;;13.59;77.56;99779.41;5113732;28;20035;-73
2022/05/05 04:27:39;;;;;;;22.00;15.35;;;;;;;13.95;76.44;99793.00;5113533;28;20024;-73
2022/05/05 04:30:05;;;;;;;23.13;16.83;;;;;;;14.26;74.76;99785.13;5113458;28;20040;-73
2022/05/05 04:32:30;;;;;;;18.85;16.48;;;;;;;14.92;72.24;99789.84;5113338;28;20020;-73
2022/05/05 04:34:56;;;;;;;18.83;15.48;;;;;;;15.84;67.28;99790.03;5113662;28;20029;-73
2022/05/05 04:37:21;;;;;;;21.52;15.23;;;;;;;16.69;62.90;99769.41;5113213;28;20136;-73
2022/05/05 04:39:47;;;;;;;19.55;14.43;;;;;;;17.14;59.84;99767.09;5113539;28;20038;-73
2022/05/05 04:42:12;;;;;;;18.52;15.05;;;;;;;16.99;59.24;99771.69;5113268;28;20655;-73
2022/05/05 04:44:38;;;;;;;19.67;15.02;;;;;;;16.76;59.96;99780.34;5113663;28;20116;-73
2022/05/05 04:47:03;;;;;;;17.30;14.23;;;;;;;16.76;60.54;99789.09;5113070;28;20043;-73
2022/05/05 04:49:30;;;;;;;17.38;15.20;;;;;;;16.94;59.60;99776.44;5112673;28;20020;-73
2022/05/05 04:51:56;;;;;;;32.33;23.98;;;;;;;17.15;59.04;99772.28;5113363;28;20051;-73
2022/05/05 04:54:21;;;;;;;23.80;16.50;;;;;;;17.85;58.17;99791.78;5113046;28;20127;-73
2022/05/05 04:56:47;;;;;;;17.10;14.43;;;;;;;19.09;54.02;99772.53;5113228;28;20535;-73
2022/05/05 04:59:12;;;;;;;21.10;14.48;;;;;;;20.47;48.98;99784.06;5112166;28;20564;-73
2022/05/05 05:01:38;;;;;;;18.85;14.30;;;;;;;21.11;45.90;99771.41;5113098;28;20024;-73
2022/05/05 05:04:03;;;;;;;17.70;14.18;;;;;;;20.77;45.34;99778.81;5112903;28;20093;-73
2022/05/05 05:06:29;;;;;;;18.92;13.15;;;;;;;20.50;47.07;99800.56;5111640;28;20114;-73
2022/05/05 05:08:55;;;;;;;17.35;13.68;;;;;;;20.34;47.58;99793.03;5112952;28;20140;-73
2022/05/05 05:11:21;;;;;;;17.80;13.65;;;;;;;20.39;47.71;99801.47;5112740;28;20460;-73
2022/05/05 05:13:46;;;;;;;16.08;13.65;;;;;;;20.36;47.54;99807.00;5112873;28;20026;-74
2022/05/05 05:16:12;;;;;;;18.25;14.40;;;;;;;20.95;46.28;99788.78;5112545;28;20119;-73
2022/05/05 05:18:37;;;;;;;17.92;14.82;;;;;;;22.32;42.52;99794.91;5112703;28;20027;-73
2022/05/05 05:21:03;;;;;;;17.52;14.52;;;;;;;23.46;39.73;99795.53;5112665;28;20384;-73
2022/05/05 05:23:28;;;;;;;17.10;13.68;;;;;;;23.44;38.86;99802.00;5112552;28;20024;-73
2022/05/05 05:25:53;;;;;;;18.85;13.50;;;;;;;22.70;40.69;99800.25;5112952;28;20287;-73
2022/05/05 05:28:19;;;;;;;15.75;13.82;;;;;;;22.06;41.78;99796.44;5112317;28;20023;-73
2022/05/05 05:30:44;;;;;;;17.85;14.73;;;;;;;21.77;42.76;99802.59;5112601;28;20028;-73
2022/05/05 05:33:10;;;;;;;17.65;14.55;;;;;;;21.68;42.75;99804.28;5112439;28;20026;-73
2022/05/05 05:35:35;;;;;;;17.70;14.13;;;;;;;22.28;42.01;99805.94;5112172;28;20051;-74
2022/05/05 05:38:01;;;;;;;17.73;15.10;;;;;;;23.62;38.34;99785.06;5112508;28;20028;-74
2022/05/05 05:40:26;;;;;;;16.65;14.13;;;;;;;24.85;36.04;99784.13;5112634;28;20424;-73
2022/05/05 05:42:52;;;;;;;21.92;14.10;;;;;;;24.72;35.39;99786.41;5112495;28;20024;-73
2022/05/05 05:45:18;;;;;;;19.13;14.23;;;;;;;23.86;36.79;99780.97;5112262;28;20532;-73
2022/05/05 05:47:44;;;;;;;16.15;14.40;;;;;;;23.56;37.94;99788.34;5111990;28;20052;-73
2022/05/05 05:50:10;;;;;;;17.77;13.85;;;;;;;23.62;38.55;99781.56;5112447;28;20027;-73
2022/05/05 05:52:36;;;;;;;17.08;15.23;;;;;;;23.85;38.27;99788.13;5112354;28;20039;-73
2022/05/05 05:55:01;;;;;;;17.45;14.50;;;;;;;24.98;35.92;99786.34;5112410;28;20028;-73
2022/05/05 05:57:28;;;;;;;18.90;14.23;;;;;;;26.15;33.55;99790.75;5112121;28;20024;-73
2022/05/05 05:59:53;;;;;;;17.02;14.48;;;;;;;25.96;33.54;99775.91;5112274;28;20156;-73
2022/05/05 06:05:04;;;;;;;17.30;15.02;;;;;;;25.13;34.54;99802.59;5112130;28;20051;-73
2022/05/05 06:07:30;;;;;;;18.38;14.68;;;;;;;25.12;35.20;99795.59;5111654;28;20027;-73
2022/05/05 06:09:55;;;;;;;16.52;14.57;;;;;;;25.44;34.72;99799.34;5112515;28;20024;-71
2022/05/05 06:12:20;;;;;;;17.10;15.30;;;;;;;26.25;32.93;99790.56;5116125;28;20040;-71
2022/05/05 06:14:46;;;;;;;19.10;13.85;;;;;;;28.36;30.23;99795.84;5116200;28;20456;-72
2022/05/05 06:17:11;;;;;;;16.60;14.38;;;;;;;29.11;28.46;99794.00;5116442;28;20035;-71
2022/05/05 06:19:37;;;;;;;17.88;13.95;;;;;;;28.50;29.36;99802.22;5116053;28;20019;-72
2022/05/05 06:22:02;;;;;;;19.05;14.02;;;;;;;28.05;30.09;99802.09;5116244;28;20392;-71
2022/05/05 06:24:28;;;;;;;17.38;15.27;;;;;;;28.46;30.44;99811.66;5115909;28;20024;-71
2022/05/05 06:26:53;;;;;;;18.38;15.65;;;;;;;30.54;27.49;99813.56;5116107;28;20039;-72
2022/05/05 06:29:18;;;;;;;20.10;16.75;;;;;;;32.94;24.52;99812.19;5115500;28;20485;-72
2022/05/05 06:31:44;;;;;;;20.05;16.40;;;;;;;34.34;22.38;99810.28;5116141;27;20057;-72
2022/05/05 06:34:10;;;;;;;17.85;15.63;;;;;;;33.98;22.72;99808.31;5115946;28;20026;-72
2022/05/05 06:36:35;;;;;;;17.00;14.65;;;;;;;33.00;23.55;99819.44;5115931;28;20085;-72
2022/05/05 06:39:01;;;;;;;16.75;15.05;;;;;;;32.79;24.24;99809.72;5115881;28;20027;-72
2022/05/05 06:41:28;;;;;;;15.88;14.32;;;;;;;34.56;22.67;99813.44;5115793;28;20024;-72
2022/05/05 06:43:54;;;;;;;16.42;13.57;;;;;;;36.49;20.30;99806.16;5115479;28;20028;-72
2022/05/05 06:46:19;;;;;;;17.08;14.75;;;;;;;38.39;17.85;99814.09;5115626;28;20383;-72
2022/05/05 06:48:45;;;;;;;14.50;12.90;;;;;;;39.65;16.41;99813.19;5115698;28;20050;-72
2022/05/05 06:51:10;;;;;;;13.05;11.80;;;;;;;40.68;15.35;99818.38;5115716;28;20024;-72
2022/05/05 06:53:36;;;;;;;14.57;11.52;;;;;;;41.52;14.76;99817.31;5115430;28;20084;-73
2022/05/05 06:56:01;;;;;;;13.40;11.25;;;;;;;42.43;14.03;99803.88;5115598;28;20051;-73
2022/05/05 06:58:26;;;;;;;18.35;11.27;;;;;;;43.29;13.32;99806.31;5115195;28;20031;-73
2022/05/05 07:05:23;;;;;;;13.07;11.30;;;;;;;44.48;12.43;99810.53;5071252;28;20064;-72
2022/05/05 07:06:38;;;;;;;15.57;11.43;;;;;;;45.08;11.81;99809.28;5070922;28;20032;-72
2022/05/05 07:11:48;;;;;;;15.25;12.25;;;;;;;45.87;11.56;99812.22;5061345;28;20031;-72
2022/05/05 07:14:15;;;;;;;13.43;12.02;;;;;;;45.90;11.56;99811.63;5057306;28;20033;-73
2022/05/05 07:16:41;;;;;;;15.30;11.35;;;;;;;46.61;11.29;99821.34;5051581;28;20079;-73
2022/05/05 07:19:07;;;;;;;13.25;11.95;;;;;;;45.90;11.21;99817.16;5051732;28;20048;-73
2022/05/05 07:21:32;;;;;;;13.07;11.20;;;;;;;46.34;11.37;99816.63;5051113;28;20756;-73
2022/05/05 07:23:57;;;;;;;16.17;12.98;;;;;;;46.95;10.85;99815.41;5051683;28;20052;-74
2022/05/05 07:26:23;;;;;;;13.57;12.13;;;;;;;46.96;10.70;99814.28;5051611;28;20071;-73
2022/05/05 07:28:48;;;;;;;15.40;12.02;;;;;;;46.30;10.86;99807.34;5051691;28;20032;-73
2022/05/05 07:31:13;;;;;;;14.07;12.30;;;;;;;46.19;10.93;99811.41;5051684;28;20578;-73
2022/05/05 07:33:39;;;;;;;16.48;13.23;;;;;;;46.07;10.80;99816.56;5051456;28;20083;-74
2022/05/05 07:36:05;;;;;;;15.50;13.48;;;;;;;46.25;11.08;99818.44;5051633;28;20032;-74
2022/05/05 07:38:30;;;;;;;12.32;10.77;;;;;;;47.09;10.72;99817.31;5083967;28;20058;-74
2022/05/05 07:40:55;;;;;;;14.10;12.50;;;;;;;47.77;10.32;99824.56;5094593;28;20020;-74
2022/05/05 07:43:21;;;;;;;12.30;11.20;;;;;;;47.26;10.32;99807.25;5093982;28;20024;-74
2022/05/05 07:45:47;;;;;;;13.20;11.65;;;;;;;46.99;10.68;99818.38;5094148;28;20421;-74
2022/05/05 07:48:13;;;;;;;13.40;12.00;;;;;;;47.06;10.55;99824.28;5094183;28;20044;-73
2022/05/05 07:50:39;;;;;;;13.73;11.23;;;;;;;47.31;10.49;99827.59;5093796;28;20028;-74
2022/05/05 07:53:04;;;;;;;12.70;11.40;;;;;;;47.32;10.40;99830.03;5094144;28;20484;-74
2022/05/05 07:55:30;;;;;;;13.25;11.80;;;;;;;47.44;10.33;99822.03;5093928;28;20560;-74
2022/05/05 07:57:57;;;;;;;13.32;11.93;;;;;;;47.72;10.36;99833.78;5099966;28;20456;-73
2022/05/05 08:00:22;;;;;;;13.05;11.60;;;;;;;47.32;10.14;99826.47;5113735;28;20024;-73
2022/05/05 08:02:48;;;;;;;12.63;11.32;;;;;;;47.62;10.21;99838.72;5114239;28;20042;-73
2022/05/05 08:05:13;;;;;;;15.60;11.98;;;;;;;47.11;10.67;99829.66;5114027;28;20043;-74
2022/05/05 08:07:48;;;;;;;13.25;11.05;;;;;;;47.26;10.26;99831.28;5113778;28;20031;-73
2022/05/05 08:10:14;;;;;;;14.35;11.73;;;;;;;47.72;10.07;99825.53;5114172;27;20020;-73
2022/05/05 08:12:40;;;;;;;16.38;11.73;;;;;;;47.71;10.18;99839.66;5113782;28;20035;-73
2022/05/05 08:15:07;;;;;;;16.63;12.63;;;;;;;46.78;10.36;99829.00;5113894;28;20027;-73
2022/05/05 08:17:33;;;;;;;15.20;12.02;;;;;;;46.61;10.43;99826.88;5113528;28;20037;-73
2022/05/05 08:19:59;;;;;;;15.73;12.23;;;;;;;45.22;11.26;99826.69;5113610;28;20015;-74
2022/05/05 08:22:25;;;;;;;15.45;12.32;;;;;;;41.38;14.10;99821.63;5113510;28;20031;-73
2022/05/05 08:30:18;;;;;;;17.40;14.20;;;;;;;32.95;20.65;99820.09;5113864;28;20050;-71
2022/05/05 08:32:44;;;;;;;17.05;12.43;;;;;;;31.89;22.08;99805.84;5113684;28;20035;-73
2022/05/05 08:35:10;;;;;;;14.38;12.98;;;;;;;31.22;22.67;99819.09;5113806;28;20034;-73
2022/05/05 08:37:35;;;;;;;18.85;14.73;;;;;;;30.57;23.54;99815.03;5113303;28;20034;-73
2022/05/05 08:40:02;;;;;;;16.35;12.75;;;;;;;30.13;25.17;99817.97;5113380;28;20103;-73
2022/05/05 08:42:27;;;;;;;16.10;11.85;;;;;;;29.63;24.75;99806.38;5113328;28;20041;-72
2022/05/05 08:44:53;;;;;;;15.45;11.98;;;;;;;29.32;25.42;99821.69;5113570;28;20019;-73
2022/05/05 08:47:23;;;;;;;17.80;12.20;;;;;;;29.06;26.70;99819.53;5113876;28;20131;-73
2022/05/05 08:49:49;;;;;;;13.82;12.43;;;;;;;28.71;25.97;99817.59;5113170;28;20047;-73
2022/05/05 08:52:21;;;;;;;13.30;10.60;;;;;;;28.40;26.82;99809.69;5113159;28;20154;-73
2022/05/05 08:54:48;;;;;;;14.45;12.90;;;;;;;28.24;27.41;99805.31;5112817;28;20476;-73
2022/05/05 08:57:14;;;;;;;16.83;13.60;;;;;;;27.96;27.13;99810.41;5112964;28;20027;-72
2022/05/05 08:59:40;;;;;;;14.27;11.57;;;;;;;27.53;27.80;99804.66;5113130;28;20059;-73
2022/05/05 09:02:05;;;;;;;14.43;11.60;;;;;;;27.35;28.22;99810.31;5113284;28;20070;-73
2022/05/05 09:04:31;;;;;;;15.80;11.30;;;;;;;27.28;28.38;99812.00;5112930;28;20081;-73
2022/05/05 09:06:56;;;;;;;13.23;11.88;;;;;;;27.17;28.43;99815.06;5112874;28;20054;-73
2022/05/05 09:09:25;;;;;;;16.48;12.30;;;;;;;26.84;29.50;99801.78;5112745;28;20024;-72
2022/05/05 09:12:09;;;;;;;15.55;10.25;;;;;;;26.48;29.06;99817.44;5112628;28;20027;-72
2022/05/05 09:14:50;;;;;;;14.75;12.18;;;;;;;26.38;30.12;99806.91;5112700;28;20023;-72
2022/05/05 09:17:17;;;;;;;14.60;11.43;;;;;;;26.43;30.58;99817.09;5112739;28;20353;-73
2022/05/05 09:19:51;;;;;;;18.30;11.23;;;;;;;26.37;30.61;99811.41;5111117;28;20019;-73
2022/05/05 09:22:21;;;;;;;13.70;10.90;;;;;;;26.30;31.09;99804.25;5112466;28;20023;-72
2022/05/05 09:24:52;;;;;;;13.60;11.20;;;;;;;26.24;31.24;99805.75;5112515;28;20023;-73
2022/05/05 09:27:18;;;;;;;14.38;11.00;;;;;;;26.29;30.40;99815.91;5112548;28;20024;-73
2022/05/05 09:30:08;;;;;;;13.88;11.45;;;;;;;26.30;31.92;99807.75;5112370;28;20100;-73
2022/05/05 09:32:40;;;;;;;18.40;12.20;;;;;;;26.28;32.13;99817.75;5112292;28;20072;-73
2022/05/05 09:35:17;;;;;;;12.45;11.10;;;;;;;26.17;32.64;99817.25;5112697;28;20031;-71
2022/05/05 09:37:46;;;;;;;13.77;11.18;;;;;;;26.08;32.17;99797.75;5112164;28;20415;-72
2022/05/05 09:40:14;;;;;;;14.52;11.20;;;;;;;26.08;31.95;99816.44;5112351;28;20059;-72
2022/05/05 09:42:44;;;;;;;14.00;10.48;;;;;;;26.07;31.98;99820.94;5112102;28;20031;-72
2022/05/05 09:45:13;;;;;;;16.50;10.88;;;;;;;26.06;32.54;99816.59;5111817;28;20099;-72
2022/05/05 09:47:50;;;;;;;12.65;11.25;;;;;;;25.99;31.92;99820.09;5111869;28;20047;-72
2022/05/05 09:50:16;;;;;;;12.52;11.23;;;;;;;25.99;31.67;99826.28;5094900;28;20035;-77
2022/05/05 09:58:22;;;;;;;12.77;11.23;;;;;;;26.30;30.85;99813.09;5092120;28;20043;-72
2022/05/05 10:00:58;;;;;;;17.67;10.85;;;;;;;26.35;30.44;99818.75;5091687;28;20034;-72
2022/05/05 10:06:23;;;;;;;12.85;11.00;;;;;;;26.66;29.88;99814.56;5091796;28;20116;-72
2022/05/05 10:08:51;;;;;;;12.93;11.45;;;;;;;26.68;30.11;99816.06;5091642;28;20216;-72
2022/05/05 10:11:19;;;;;;;13.38;12.02;;;;;;;26.53;29.13;99807.06;5091871;28;20368;-72
2022/05/05 10:13:45;;;;;;;14.10;12.02;;;;;;;26.22;29.75;99805.09;5091587;28;20039;-72
2022/05/05 10:16:14;;;;;;;12.73;11.43;;;;;;;25.95;30.81;99805.44;5091788;28;20024;-72
2022/05/05 10:18:41;;;;;;;12.00;10.55;;;;;;;25.77;30.97;99806.41;5091668;28;20028;-72
2022/05/05 10:21:08;;;;;;;11.98;10.52;;;;;;;25.72;31.00;99802.56;5091927;28;20028;-72
2022/05/05 10:24:06;;;;;;;13.50;10.77;;;;;;;25.88;30.69;99810.63;5091550;28;20112;-72
2022/05/05 10:26:32;;;;;;;14.77;11.30;;;;;;;25.98;30.89;99808.59;5091501;28;20035;-72
2022/05/05 10:28:58;;;;;;;12.38;11.07;;;;;;;26.16;30.86;99804.91;5091490;28;20020;-72
2022/05/05 10:31:29;;;;;;;14.43;12.55;;;;;;;26.01;29.80;99816.28;5091796;28;20036;-72
2022/05/05 10:34:08;;;;;;;14.35;11.13;;;;;;;25.81;29.09;99799.75;5091716;28;20032;-72
2022/05/05 10:36:35;;;;;;;14.88;12.13;;;;;;;25.69;28.99;99798.38;5091248;28;20472;-72
2022/05/05 10:39:22;;;;;;;13.32;11.57;;;;;;;25.68;28.87;99801.22;5091822;28;20035;-72
2022/05/05 10:41:48;;;;;;;12.73;9.98;;;;;;;25.65;29.25;99791.69;5091527;28;20024;-72
2022/05/05 10:44:17;;;;;;;11.63;10.35;;;;;;;25.81;28.51;99799.75;5091631;28;20040;-72
2022/05/05 10:46:56;;;;;;;13.47;11.73;;;;;;;25.70;28.50;99793.88;5091081;28;20495;-72
2022/05/05 10:49:34;;;;;;;15.20;10.52;;;;;;;25.39;28.87;99795.31;5091303;28;20024;-72
2022/05/05 10:52:11;;;;;;;11.30;9.98;;;;;;;25.17;29.25;99787.94;5091851;28;20073;-72
2022/05/05 10:54:38;;;;;;;12.20;10.10;;;;;;;25.10;30.04;99781.59;5091117;28;20032;-72
2022/05/05 10:57:25;;;;;;;12.15;10.93;;;;;;;24.95;30.12;99786.69;5091742;28;20028;-72
2022/05/05 11:00:13;;;;;;;11.77;9.68;;;;;;;24.81;30.24;99789.94;5094789;28;20113;-72
2022/05/05 11:03:02;;;;;;;14.27;9.20;;;;;;;24.95;30.82;99785.84;5094879;28;20666;-72
2022/05/05 11:05:29;;;;;;;14.00;9.65;;;;;;;25.03;31.42;99768.06;5032495;28;20048;-72
2022/05/05 11:08:17;;;;;;;10.20;9.20;;;;;;;25.32;29.85;99793.47;5031584;28;20087;-72
2022/05/05 11:13:41;;;;;;;9.45;8.45;;;;;;;25.54;28.66;99765.38;5031869;28;20067;-72
2022/05/05 11:22:07;;;;;;;10.25;8.75;;;;;;;25.39;28.71;99771.34;5032002;28;20112;-72
2022/05/05 11:24:33;;;;;;;9.25;8.30;;;;;;;25.20;28.06;99776.09;5031980;28;20072;-72
2022/05/05 11:26:59;;;;;;;10.40;9.00;;;;;;;25.02;28.24;99762.88;5031922;28;20026;-72
2022/05/05 11:29:31;;;;;;;15.95;9.18;;;;;;;25.04;28.62;99775.06;5031721;28;20045;-72
2022/05/05 11:32:02;;;;;;;9.38;8.48;;;;;;;25.04;29.95;99766.22;5031637;28;20025;-72
2022/05/05 11:34:32;;;;;;;11.00;8.00;;;;;;;25.21;29.43;99775.97;5031858;28;20030;-72
2022/05/05 11:37:01;;;;;;;10.90;8.38;;;;;;;25.33;29.76;99763.16;5031499;28;20155;-72
2022/05/05 11:39:29;;;;;;;10.00;8.68;;;;;;;25.51;29.78;99777.19;5031555;28;20041;-72
2022/05/05 11:41:58;;;;;;;10.27;8.43;;;;;;;25.62;28.83;99776.88;5046391;28;20043;-72
2022/05/05 11:44:25;;;;;;;8.82;7.93;;;;;;;25.58;29.49;99758.72;5094586;28;20028;-72
2022/05/05 11:46:52;;;;;;;9.63;8.60;;;;;;;25.65;28.42;99770.38;5093770;28;20492;-72
2022/05/05 11:49:17;;;;;;;9.77;7.93;;;;;;;25.60;27.85;99767.38;5092914;28;20377;-72
2022/05/05 11:51:43;;;;;;;9.82;7.90;;;;;;;25.65;28.28;99762.34;5093856;28;20028;-73
2022/05/05 11:54:16;;;;;;;10.48;8.05;;;;;;;25.55;28.72;99762.53;5093930;28;20482;-72
2022/05/05 11:56:49;;;;;;;9.02;8.13;;;;;;;25.30;28.17;99761.66;5093881;28;20465;-72
2022/05/05 12:02:04;;;;;;;10.00;8.50;;;;;;;25.24;29.06;99777.44;5094047;28;20061;-72
2022/05/05 12:04:31;;;;;;;9.63;7.85;;;;;;;25.13;29.27;99771.44;5093990;28;20123;-72
2022/05/05 12:06:58;;;;;;;9.05;7.68;;;;;;;25.21;29.03;99769.81;5093332;28;20040;-72